Time;durP1;ratioP1;P1;durP2;ratioP2;P2;SDS_P1;SDS_P2;PMS_P1;PMS_P2;Temp;Humidity;BMP_temperature;BMP_pressure;BME280_temperature;BME280_humidity;BME280_pressure;Samples;Min_cycle;Max_cycle;Signal;HPM_P1;HPM_P2
2022/03/14 00:00:48;;;;;;;;;;;10.10;91.40;;;;;;5073725;28;19912;-55
2022/03/14 00:03:14;;;;;;;;;;;10.10;90.70;;;;;;5091959;28;20335;-55
2022/03/14 00:05:40;;;;;;;;;;;10.10;91.60;;;;;;5093027;28;19913;-55
2022/03/14 00:08:06;;;;;;;;;;;10.10;91.80;;;;;;5095474;28;19916;-55
2022/03/14 00:10:32;;;;;;;;;;;10.10;92.60;;;;;;5095745;28;19967;-54
2022/03/14 00:12:58;;;;;;;;;;;10.00;93.60;;;;;;5095737;28;19919;-55
2022/03/14 00:15:30;;;;;;;;;;;10.00;94.00;;;;;;5095006;28;19915;-54
2022/03/14 00:17:56;;;;;;;;;;;10.00;95.00;;;;;;5095743;28;19915;-55
2022/03/14 00:20:22;;;;;;;;;;;9.90;96.50;;;;;;5095226;28;20035;-54
2022/03/14 00:22:48;;;;;;;;;;;10.00;97.90;;;;;;5095450;28;19999;-54
2022/03/14 00:25:13;;;;;;;;;;;10.00;99.90;;;;;;5095769;28;19908;-55
2022/03/14 00:27:39;;;;;;;;;;;10.00;99.90;;;;;;5094865;28;20314;-55
2022/03/14 00:30:10;;;;;;;;;;;9.90;99.90;;;;;;5095478;28;20290;-55
2022/03/14 00:32:35;;;;;;;;;;;9.90;99.90;;;;;;5095186;28;20255;-54
2022/03/14 00:35:01;;;;;;;;;;;9.90;99.90;;;;;;5094598;28;19974;-55
2022/03/14 00:37:27;;;;;;;;;;;9.90;99.90;;;;;;5095090;28;20252;-55
2022/03/14 00:39:53;;;;;;;;;;;10.00;99.90;;;;;;5095499;28;19914;-55
2022/03/14 00:42:21;;;;;;;;;;;10.00;99.90;;;;;;5094583;28;20263;-55
2022/03/14 00:44:47;;;;;;;;;;;10.10;99.90;;;;;;5095141;28;19908;-54
2022/03/14 00:47:13;;;;;;;;;;;10.20;99.90;;;;;;5077487;28;19912;-55
2022/03/14 00:49:38;;;;;;;;;;;10.20;99.90;;;;;;5094508;28;19935;-54
2022/03/14 00:52:04;;;;;;;;;;;10.30;99.90;;;;;;5095123;28;19946;-55
2022/03/14 00:54:29;;;;;;;;;;;10.40;99.90;;;;;;5080064;28;19913;-55
2022/03/14 00:56:54;;;;;;;;;;;10.50;99.90;;;;;;5074322;28;19912;-54
2022/03/14 00:59:20;;;;;;;;;;;10.60;99.90;;;;;;5074796;28;19909;-55
2022/03/14 01:01:45;;;;;;;;;;;10.60;99.90;;;;;;5074590;28;19915;-54
2022/03/14 01:04:11;;;;;;;;;;;10.70;99.90;;;;;;5074020;28;20263;-54
2022/03/14 01:06:37;;;;;;;;;;;10.70;99.90;;;;;;5074381;28;19909;-56
2022/03/14 01:09:03;;;;;;;;;;;10.60;99.90;;;;;;5074652;28;19931;-56
2022/03/14 01:11:28;;;;;;;;;;;10.60;99.90;;;;;;5073918;28;19970;-54
2022/03/14 01:13:54;;;;;;;;;;;10.60;99.90;;;;;;5074343;28;19916;-54
2022/03/14 01:16:20;;;;;;;;;;;10.50;99.90;;;;;;5073974;28;19908;-56
2022/03/14 01:18:45;;;;;;;;;;;10.50;99.90;;;;;;5073756;28;20283;-55
2022/03/14 01:21:10;;;;;;;;;;;10.40;99.90;;;;;;5074465;28;19934;-55
2022/03/14 01:23:36;;;;;;;;;;;10.40;99.90;;;;;;5073322;28;19955;-55
2022/03/14 01:26:01;;;;;;;;;;;10.30;99.90;;;;;;5074205;28;19912;-55
2022/03/14 01:28:27;;;;;;;;;;;10.30;99.90;;;;;;5073893;28;19909;-55
2022/03/14 01:30:52;;;;;;;;;;;10.30;99.90;;;;;;5073818;28;19917;-55
2022/03/14 01:33:18;;;;;;;;;;;10.30;99.90;;;;;;5093948;28;19923;-55
2022/03/14 01:35:44;;;;;;;;;;;10.20;99.90;;;;;;5094136;28;19924;-56
2022/03/14 01:38:10;;;;;;;;;;;10.30;99.90;;;;;;5093818;28;19908;-54
2022/03/14 01:40:35;;;;;;;;;;;10.30;99.90;;;;;;5093994;28;19908;-56
2022/03/14 01:43:01;;;;;;;;;;;10.30;99.90;;;;;;5094113;28;19912;-55
2022/03/14 01:45:26;;;;;;;;;;;10.30;99.90;;;;;;5093411;28;19908;-55
2022/03/14 01:47:52;;;;;;;;;;;10.40;99.90;;;;;;5094102;28;19914;-56
2022/03/14 01:50:18;;;;;;;;;;;10.40;99.90;;;;;;5094031;28;19909;-56
2022/03/14 01:52:44;;;;;;;;;;;10.50;99.90;;;;;;5093186;28;19912;-56
2022/03/14 01:55:11;;;;;;;;;;;10.50;99.90;;;;;;5093919;28;19908;-55
2022/03/14 01:57:37;;;;;;;;;;;10.50;99.90;;;;;;5093564;28;20363;-55
2022/03/14 02:00:07;;;;;;;;;;;10.50;99.90;;;;;;5093287;28;19908;-55
2022/03/14 02:02:32;;;;;;;;;;;10.50;99.90;;;;;;5093114;28;19916;-53
2022/03/14 02:04:58;;;;;;;;;;;10.50;99.90;;;;;;5093792;28;19953;-56
2022/03/14 02:07:24;;;;;;;;;;;10.40;99.90;;;;;;5092815;28;19978;-55
2022/03/14 02:09:50;;;;;;;;;;;10.40;99.90;;;;;;5093853;28;19915;-56
2022/03/14 02:12:15;;;;;;;;;;;10.30;99.90;;;;;;5091529;28;19921;-55
2022/03/14 02:14:41;;;;;;;;;;;10.30;99.90;;;;;;5092840;28;19942;-55
2022/03/14 02:17:10;;;;;;;;;;;10.30;99.90;;;;;;5093464;28;20386;-55
2022/03/14 02:19:36;;;;;;;;;;;10.40;99.90;;;;;;5093012;28;19908;-54
2022/03/14 02:22:03;;;;;;;;;;;10.30;99.90;;;;;;5093347;28;19912;-56
2022/03/14 02:24:29;;;;;;;;;;;10.30;99.90;;;;;;5092999;28;20026;-56
2022/03/14 02:26:55;;;;;;;;;;;10.30;99.90;;;;;;5092699;28;20361;-56
2022/03/14 02:29:20;;;;;;;;;;;10.30;99.90;;;;;;5093220;28;19912;-55
2022/03/14 02:31:46;;;;;;;;;;;10.30;99.90;;;;;;5093383;28;19969;-55
2022/03/14 02:34:12;;;;;;;;;;;10.30;99.90;;;;;;5092370;28;19924;-56
2022/03/14 02:36:39;;;;;;;;;;;10.30;99.90;;;;;;5093161;28;19912;-55
2022/03/14 02:39:08;;;;;;;;;;;10.30;99.90;;;;;;5093251;28;19911;-55
2022/03/14 02:41:34;;;;;;;;;;;10.30;99.90;;;;;;5092282;28;19912;-56
2022/03/14 02:44:01;;;;;;;;;;;10.30;99.90;;;;;;5078706;28;19927;-56
2022/03/14 02:46:26;;;;;;;;;;;10.30;99.90;;;;;;5088049;28;19990;-56
2022/03/14 02:48:52;;;;;;;;;;;10.30;99.90;;;;;;5092162;28;19923;-56
2022/03/14 02:51:17;;;;;;;;;;;10.30;99.90;;;;;;5092986;28;19912;-56
2022/03/14 02:53:43;;;;;;;;;;;10.30;99.90;;;;;;5092614;28;19908;-56
2022/03/14 02:56:08;;;;;;;;;;;10.30;99.90;;;;;;5092336;28;19908;-55
2022/03/14 02:58:38;;;;;;;;;;;10.30;99.90;;;;;;5092758;28;19915;-56
2022/03/14 03:01:04;;;;;;;;;;;10.30;99.90;;;;;;5093009;28;19953;-55
2022/03/14 03:03:30;;;;;;;;;;;10.30;99.90;;;;;;5092117;28;19909;-55
2022/03/14 03:05:56;;;;;;;;;;;10.20;99.90;;;;;;5092772;28;19908;-56
2022/03/14 03:08:22;;;;;;;;;;;10.30;99.90;;;;;;5092767;28;19912;-56
2022/03/14 03:10:47;;;;;;;;;;;10.30;99.90;;;;;;5092198;28;19935;-56
2022/03/14 03:13:13;;;;;;;;;;;10.30;99.90;;;;;;5080148;28;20037;-56
2022/03/14 03:15:39;;;;;;;;;;;10.30;99.90;;;;;;5072216;28;19952;-56
2022/03/14 03:18:05;;;;;;;;;;;10.30;99.90;;;;;;5071986;28;19908;-56
2022/03/14 03:20:31;;;;;;;;;;;10.30;99.90;;;;;;5072271;28;19915;-56
2022/03/14 03:22:56;;;;;;;;;;;10.30;99.90;;;;;;5072029;28;19908;-55
2022/03/14 03:25:22;;;;;;;;;;;10.30;99.90;;;;;;5072241;28;19916;-57
2022/03/14 03:27:47;;;;;;;;;;;10.30;99.90;;;;;;5072461;28;19913;-55
2022/03/14 03:30:13;;;;;;;;;;;10.30;99.90;;;;;;5072133;28;19908;-54
2022/03/14 03:32:38;;;;;;;;;;;10.30;99.90;;;;;;5072151;28;19917;-56
2022/03/14 03:35:04;;;;;;;;;;;10.30;99.90;;;;;;5072141;28;19927;-56
2022/03/14 03:37:29;;;;;;;;;;;10.30;99.90;;;;;;5071577;28;19931;-54
2022/03/14 03:39:55;;;;;;;;;;;10.30;99.90;;;;;;5072498;28;20011;-56
2022/03/14 03:42:21;;;;;;;;;;;10.30;99.90;;;;;;5080271;28;20010;-56
2022/03/14 03:44:46;;;;;;;;;;;10.30;99.90;;;;;;5095905;28;19908;-56
2022/03/14 03:47:12;;;;;;;;;;;10.30;99.90;;;;;;5096413;28;19912;-56
2022/03/14 03:49:38;;;;;;;;;;;10.30;99.90;;;;;;5096032;28;19919;-55
2022/03/14 03:52:04;;;;;;;;;;;10.30;99.90;;;;;;5095650;28;19924;-56
2022/03/14 03:54:29;;;;;;;;;;;10.30;99.90;;;;;;5095810;28;19908;-56
2022/03/14 03:56:55;;;;;;;;;;;10.30;99.90;;;;;;5096380;28;19908;-55
2022/03/14 03:59:21;;;;;;;;;;;10.30;99.90;;;;;;5095574;28;19993;-56
2022/03/14 04:01:47;;;;;;;;;;;10.30;99.90;;;;;;5096071;28;19909;-56
2022/03/14 04:04:12;;;;;;;;;;;10.30;99.90;;;;;;5096154;28;19919;-55
2022/03/14 04:06:41;;;;;;;;;;;10.30;99.90;;;;;;5095163;28;19908;-55
2022/03/14 04:09:07;;;;;;;;;;;10.20;99.90;;;;;;5096172;28;19908;-56
2022/03/14 04:11:33;;;;;;;;;;;10.30;99.90;;;;;;5095603;28;20396;-56
2022/03/14 04:13:58;;;;;;;;;;;10.30;99.90;;;;;;5077156;28;19920;-56
2022/03/14 04:16:27;;;;;;;;;;;10.30;99.90;;;;;;5075224;28;19908;-55
2022/03/14 04:18:53;;;;;;;;;;;10.30;99.90;;;;;;5075705;28;19913;-56
2022/03/14 04:21:20;;;;;;;;;;;10.30;99.90;;;;;;5074849;28;19919;-55
2022/03/14 04:23:46;;;;;;;;;;;10.30;99.90;;;;;;5075305;28;19909;-56
2022/03/14 04:26:11;;;;;;;;;;;10.30;99.90;;;;;;5075235;28;19962;-57
2022/03/14 04:28:39;;;;;;;;;;;10.20;99.90;;;;;;5075101;28;19912;-56
2022/03/14 04:31:05;;;;;;;;;;;10.20;99.90;;;;;;5075353;28;19919;-56
2022/03/14 04:33:30;;;;;;;;;;;10.20;99.90;;;;;;5074332;28;19908;-56
2022/03/14 04:35:57;;;;;;;;;;;10.20;99.90;;;;;;5075185;28;19908;-54
2022/03/14 04:38:23;;;;;;;;;;;10.20;99.90;;;;;;5075127;28;19912;-56
2022/03/14 04:40:49;;;;;;;;;;;10.20;99.90;;;;;;5076399;28;20356;-56
2022/03/14 04:43:15;;;;;;;;;;;10.20;99.90;;;;;;5075101;28;19908;-55
2022/03/14 04:45:41;;;;;;;;;;;10.20;99.90;;;;;;5074919;28;19909;-56
2022/03/14 04:48:07;;;;;;;;;;;10.20;99.90;;;;;;5074827;28;19915;-55
2022/03/14 04:50:32;;;;;;;;;;;10.20;99.90;;;;;;5074581;28;20333;-56
2022/03/14 04:52:58;;;;;;;;;;;10.20;99.90;;;;;;5073848;28;20616;-55
2022/03/14 04:55:24;;;;;;;;;;;10.20;99.90;;;;;;5074162;28;19916;-55
2022/03/14 04:57:49;;;;;;;;;;;10.20;99.90;;;;;;5074812;28;19923;-56
2022/03/14 05:00:15;;;;;;;;;;;10.10;99.90;;;;;;5075793;28;19919;-55
2022/03/14 05:02:40;;;;;;;;;;;10.10;99.90;;;;;;5073971;28;20366;-56
2022/03/14 05:05:08;;;;;;;;;;;10.10;99.90;;;;;;5074773;28;20373;-56
2022/03/14 05:07:34;;;;;;;;;;;10.10;99.90;;;;;;5074357;28;20362;-56
2022/03/14 05:09:59;;;;;;;;;;;10.10;99.90;;;;;;5074273;28;19909;-55
2022/03/14 05:12:25;;;;;;;;;;;10.10;99.90;;;;;;5074257;28;19923;-56
2022/03/14 05:14:51;;;;;;;;;;;10.10;99.90;;;;;;5074603;28;19908;-55
2022/03/14 05:17:17;;;;;;;;;;;10.10;99.90;;;;;;5074009;28;19916;-57
2022/03/14 05:19:43;;;;;;;;;;;10.10;99.90;;;;;;5074392;28;20352;-56
2022/03/14 05:22:08;;;;;;;;;;;10.10;99.90;;;;;;5074539;28;19916;-56
2022/03/14 05:24:34;;;;;;;;;;;10.10;99.90;;;;;;5073579;28;20351;-56
2022/03/14 05:26:59;;;;;;;;;;;10.10;99.90;;;;;;5074372;28;20266;-55
2022/03/14 05:29:25;;;;;;;;;;;10.00;99.90;;;;;;5074044;28;19909;-56
2022/03/14 05:31:50;;;;;;;;;;;10.00;99.90;;;;;;5075000;28;19928;-56
2022/03/14 05:34:16;;;;;;;;;;;10.00;99.90;;;;;;5073874;28;20375;-55
2022/03/14 05:36:41;;;;;;;;;;;10.00;99.90;;;;;;5073333;28;19926;-56
2022/03/14 05:39:07;;;;;;;;;;;10.00;99.90;;;;;;5074092;28;19915;-57
2022/03/14 05:41:32;;;;;;;;;;;10.00;99.90;;;;;;5073765;28;19913;-56
2022/03/14 05:43:58;;;;;;;;;;;9.90;99.90;;;;;;5073363;28;19908;-55
2022/03/14 05:46:23;;;;;;;;;;;9.90;99.90;;;;;;5073602;28;19967;-56
2022/03/14 05:48:49;;;;;;;;;;;9.90;99.90;;;;;;5073813;28;19908;-56
2022/03/14 05:51:14;;;;;;;;;;;9.90;99.90;;;;;;5073317;28;19917;-55
2022/03/14 05:53:40;;;;;;;;;;;9.90;99.90;;;;;;5073607;28;19999;-57
2022/03/14 05:56:06;;;;;;;;;;;9.90;99.90;;;;;;5073796;28;19909;-57
2022/03/14 05:58:31;;;;;;;;;;;9.90;99.90;;;;;;5072964;28;19956;-56
2022/03/14 06:00:57;;;;;;;;;;;9.90;99.90;;;;;;5074698;28;20003;-55
2022/03/14 06:03:22;;;;;;;;;;;9.90;99.90;;;;;;5072982;28;19919;-55
2022/03/14 06:05:48;;;;;;;;;;;9.90;99.90;;;;;;5073128;28;19909;-56
2022/03/14 06:08:14;;;;;;;;;;;9.90;99.90;;;;;;5086781;28;20343;-55
2022/03/14 06:10:45;;;;;;;;;;;9.90;99.90;;;;;;5093335;28;19909;-55
2022/03/14 06:13:14;;;;;;;;;;;9.90;99.90;;;;;;5092920;28;19912;-56
2022/03/14 06:15:40;;;;;;;;;;;9.90;99.90;;;;;;5092580;28;19916;-55
2022/03/14 06:18:05;;;;;;;;;;;9.90;99.90;;;;;;5092829;28;19941;-55
2022/03/14 06:20:31;;;;;;;;;;;9.90;99.90;;;;;;5092126;28;20064;-54
2022/03/14 06:22:57;;;;;;;;;;;9.90;99.90;;;;;;5093330;28;20513;-55
2022/03/14 06:25:22;;;;;;;;;;;9.90;99.90;;;;;;5093216;28;19912;-56
2022/03/14 06:27:48;;;;;;;;;;;9.90;99.90;;;;;;5092853;28;20381;-55
2022/03/14 06:30:14;;;;;;;;;;;9.90;99.90;;;;;;5093527;28;19908;-54
2022/03/14 06:32:40;;;;;;;;;;;9.90;99.90;;;;;;5092986;28;20283;-55
2022/03/14 06:35:07;;;;;;;;;;;9.90;99.90;;;;;;5092506;28;19920;-55
2022/03/14 06:37:33;;;;;;;;;;;9.80;99.90;;;;;;5092986;28;19912;-54
2022/03/14 06:39:59;;;;;;;;;;;9.80;99.90;;;;;;5092856;28;19916;-56
2022/03/14 06:42:25;;;;;;;;;;;9.80;99.90;;;;;;5092963;28;20012;-55
2022/03/14 06:44:50;;;;;;;;;;;9.80;99.90;;;;;;5093016;28;20381;-56
2022/03/14 06:47:17;;;;;;;;;;;9.80;99.90;;;;;;5092488;28;19951;-55
2022/03/14 06:49:44;;;;;;;;;;;9.80;99.90;;;;;;5084488;28;19924;-55
2022/03/14 06:52:13;;;;;;;;;;;9.80;99.90;;;;;;5089592;28;20343;-54
2022/03/14 06:54:39;;;;;;;;;;;9.80;99.90;;;;;;5092325;28;20049;-56
2022/03/14 06:57:08;;;;;;;;;;;9.80;99.90;;;;;;5092690;28;20311;-55
2022/03/14 06:59:34;;;;;;;;;;;9.80;99.90;;;;;;5092508;28;19912;-55
2022/03/14 07:02:00;;;;;;;;;;;9.80;99.90;;;;;;5092018;28;19908;-55
2022/03/14 07:04:25;;;;;;;;;;;9.80;99.90;;;;;;5091975;28;20380;-55
2022/03/14 07:06:51;;;;;;;;;;;9.90;99.90;;;;;;5089439;28;20017;-56
2022/03/14 07:09:16;;;;;;;;;;;9.80;99.90;;;;;;5091881;28;19908;-55
2022/03/14 07:11:41;;;;;;;;;;;9.80;99.90;;;;;;5092164;28;19920;-55
2022/03/14 07:14:08;;;;;;;;;;;9.90;99.90;;;;;;5092838;28;19915;-54
2022/03/14 07:16:33;;;;;;;;;;;9.90;99.90;;;;;;5094720;28;19908;-55
2022/03/14 07:18:59;;;;;;;;;;;9.90;99.90;;;;;;5096878;28;19912;-55
2022/03/14 07:21:28;;;;;;;;;;;9.90;99.90;;;;;;5096894;28;19908;-55
2022/03/14 07:23:56;;;;;;;;;;;9.90;99.90;;;;;;5096175;28;19908;-54
2022/03/14 07:26:22;;;;;;;;;;;9.90;99.90;;;;;;5096683;28;19908;-56
2022/03/14 07:28:48;;;;;;;;;;;9.90;99.90;;;;;;5096579;28;20398;-57
2022/03/14 07:31:15;;;;;;;;;;;9.90;99.90;;;;;;5095495;28;20454;-55
2022/03/14 07:33:41;;;;;;;;;;;9.90;99.90;;;;;;5080737;28;19952;-55
2022/03/14 07:36:06;;;;;;;;;;;10.00;99.90;;;;;;5076198;28;19962;-54
2022/03/14 07:38:32;;;;;;;;;;;10.00;99.90;;;;;;5075999;28;19938;-56
2022/03/14 07:40:57;;;;;;;;;;;10.00;99.90;;;;;;5076290;28;19916;-56
2022/03/14 07:43:23;;;;;;;;;;;10.00;99.90;;;;;;5075386;28;19920;-55
2022/03/14 07:45:48;;;;;;;;;;;10.00;99.90;;;;;;5082070;28;20392;-55
2022/03/14 07:48:13;;;;;;;;;;;10.00;99.90;;;;;;5096448;28;20337;-55
2022/03/14 07:50:39;;;;;;;;;;;10.00;99.90;;;;;;5095645;28;19912;-56
2022/03/14 07:53:06;;;;;;;;;;;10.00;99.90;;;;;;5084739;28;19981;-56
2022/03/14 07:55:32;;;;;;;;;;;10.10;99.90;;;;;;5111070;28;19915;-57
2022/03/14 07:57:58;;;;;;;;;;;10.10;99.90;;;;;;5114434;28;20075;-55
2022/03/14 08:00:23;;;;;;;;;;;10.10;99.90;;;;;;5096230;28;19912;-56
2022/03/14 08:02:49;;;;;;;;;;;10.10;99.90;;;;;;5096226;28;19920;-55
2022/03/14 08:05:16;;;;;;;;;;;10.10;99.90;;;;;;5095537;28;19908;-56
2022/03/14 08:07:44;;;;;;;;;;;10.20;99.90;;;;;;5095632;28;19959;-55
2022/03/14 08:10:10;;;;;;;;;;;10.20;99.90;;;;;;5096047;28;19915;-55
2022/03/14 08:12:52;;;;;;;;;;;10.20;99.90;;;;;;5095036;28;19920;-54
2022/03/14 08:15:21;;;;;;;;;;;10.30;99.90;;;;;;5095728;28;20323;-54
2022/03/14 08:17:47;;;;;;;;;;;10.30;99.90;;;;;;5095807;28;20331;-55
2022/03/14 08:20:12;;;;;;;;;;;10.40;99.90;;;;;;5095197;28;19977;-55
2022/03/14 08:22:38;;;;;;;;;;;10.40;99.90;;;;;;5095609;28;19912;-55
2022/03/14 08:25:04;;;;;;;;;;;10.40;99.90;;;;;;5095543;28;20297;-55
2022/03/14 08:27:29;;;;;;;;;;;10.40;99.90;;;;;;5094698;28;19931;-56
2022/03/14 08:29:55;;;;;;;;;;;10.50;99.90;;;;;;5095063;28;19908;-54
2022/03/14 08:32:21;;;;;;;;;;;10.50;99.90;;;;;;5094753;28;19924;-56
2022/03/14 08:34:48;;;;;;;;;;;10.50;99.90;;;;;;5094328;28;19970;-55
2022/03/14 08:37:13;;;;;;;;;;;10.50;99.90;;;;;;5093324;28;19955;-53
2022/03/14 08:39:39;;;;;;;;;;;10.50;99.90;;;;;;5094070;28;19981;-55
2022/03/14 08:42:05;;;;;;;;;;;10.50;99.90;;;;;;5095366;28;19916;-56
2022/03/14 08:44:30;;;;;;;;;;;10.50;99.90;;;;;;5095212;28;19912;-55
2022/03/14 08:46:56;;;;;;;;;;;10.50;99.90;;;;;;5094226;28;20357;-55
2022/03/14 08:49:21;;;;;;;;;;;10.40;99.90;;;;;;5094584;28;19938;-56
2022/03/14 08:51:47;;;;;;;;;;;10.50;99.90;;;;;;5094730;28;19917;-55
2022/03/14 08:54:12;;;;;;;;;;;10.50;99.90;;;;;;5094186;28;19912;-57
2022/03/14 08:56:38;;;;;;;;;;;10.40;99.90;;;;;;5094345;28;20310;-56
2022/03/14 08:59:04;;;;;;;;;;;10.40;99.90;;;;;;5094943;28;20321;-56
2022/03/14 09:01:30;;;;;;;;;;;10.50;99.90;;;;;;5094259;28;20343;-57
2022/03/14 09:03:56;;;;;;;;;;;10.50;99.90;;;;;;5095082;28;19942;-55
2022/03/14 09:06:21;;;;;;;;;;;10.50;99.90;;;;;;5094000;28;19988;-55
2022/03/14 09:08:47;;;;;;;;;;;10.50;99.90;;;;;;5094220;28;19920;-56
2022/03/14 09:11:13;;;;;;;;;;;10.50;99.90;;;;;;5094624;28;20054;-55
2022/03/14 09:13:39;;;;;;;;;;;10.40;99.90;;;;;;5094357;28;19933;-57
2022/03/14 09:16:08;;;;;;;;;;;10.40;99.90;;;;;;5094261;28;20309;-55
2022/03/14 09:18:34;;;;;;;;;;;10.40;99.90;;;;;;5094400;28;19912;-55
2022/03/14 09:21:00;;;;;;;;;;;10.40;99.90;;;;;;5094559;28;19924;-56
2022/03/14 09:23:27;;;;;;;;;;;10.40;99.90;;;;;;5093681;28;19912;-56
2022/03/14 09:25:52;;;;;;;;;;;10.40;99.90;;;;;;5094403;28;20319;-54
2022/03/14 09:28:20;;;;;;;;;;;10.40;99.90;;;;;;5088331;28;19959;-54
2022/03/14 09:30:46;;;;;;;;;;;10.30;99.90;;;;;;5073769;28;20440;-55
2022/03/14 09:33:11;;;;;;;;;;;10.30;99.90;;;;;;5093887;28;19916;-53
2022/03/14 09:35:37;;;;;;;;;;;10.30;99.90;;;;;;5093899;28;20473;-56
2022/03/14 09:38:02;;;;;;;;;;;10.30;99.90;;;;;;5093110;28;19912;-55
2022/03/14 09:40:29;;;;;;;;;;;10.20;99.90;;;;;;5094022;28;19947;-56
2022/03/14 09:42:55;;;;;;;;;;;10.20;99.90;;;;;;5093755;28;19956;-56
2022/03/14 09:45:21;;;;;;;;;;;10.10;99.90;;;;;;5093886;28;19942;-55
2022/03/14 09:47:48;;;;;;;;;;;10.10;99.90;;;;;;5094281;28;19916;-55
2022/03/14 09:50:30;;;;;;;;;;;10.10;99.90;;;;;;5093524;28;19952;-56
2022/03/14 09:52:56;;;;;;;;;;;10.10;99.90;;;;;;5094077;28;19943;-54
2022/03/14 09:55:21;;;;;;;;;;;10.00;99.90;;;;;;5093725;28;20015;-54
2022/03/14 09:57:47;;;;;;;;;;;9.90;99.90;;;;;;5091624;28;19995;-55
2022/03/14 10:00:13;;;;;;;;;;;9.90;99.90;;;;;;5093570;28;19924;-55
2022/03/14 10:02:39;;;;;;;;;;;9.90;99.90;;;;;;5093471;28;20013;-54
2022/03/14 10:05:09;;;;;;;;;;;9.80;99.90;;;;;;5093306;28;19908;-55
2022/03/14 10:07:34;;;;;;;;;;;9.80;99.90;;;;;;5093544;28;19908;-55
2022/03/14 10:10:01;;;;;;;;;;;9.80;99.90;;;;;;5093832;28;19915;-56
2022/03/14 10:12:26;;;;;;;;;;;9.70;99.90;;;;;;5074719;28;20267;-55
2022/03/14 10:14:52;;;;;;;;;;;9.80;99.90;;;;;;5093674;28;19908;-54
2022/03/14 10:17:17;;;;;;;;;;;9.80;99.90;;;;;;5093318;28;19908;-57
2022/03/14 10:19:52;;;;;;;;;;;9.80;99.90;;;;;;5092862;28;19917;-53
2022/03/14 10:22:19;;;;;;;;;;;9.80;99.90;;;;;;5093566;28;19912;-52
2022/03/14 10:24:46;;;;;;;;;;;9.80;99.90;;;;;;5093248;28;20398;-51
2022/03/14 10:27:12;;;;;;;;;;;9.70;99.90;;;;;;5080620;28;19912;-49
2022/03/14 10:29:37;;;;;;;;;;;9.70;99.90;;;;;;5072872;28;19920;-54
2022/03/14 10:32:18;;;;;;;;;;;9.70;99.90;;;;;;5072520;28;19920;-53
2022/03/14 10:34:52;;;;;;;;;;;9.70;99.90;;;;;;5072976;28;19924;-52
2022/03/14 10:37:18;;;;;;;;;;;9.70;99.90;;;;;;5072771;28;19912;-53
2022/03/14 10:39:43;;;;;;;;;;;9.70;99.90;;;;;;5072560;28;19913;-54
2022/03/14 10:42:10;;;;;;;;;;;9.70;99.90;;;;;;5072982;28;19915;-54
2022/03/14 10:44:37;;;;;;;;;;;9.80;99.90;;;;;;5072625;28;19912;-53
2022/03/14 10:47:04;;;;;;;;;;;9.80;99.90;;;;;;5072490;28;20367;-52
2022/03/14 10:49:30;;;;;;;;;;;9.90;99.90;;;;;;5071984;28;19999;-53
2022/03/14 10:51:57;;;;;;;;;;;9.90;99.90;;;;;;5072198;28;19961;-52
2022/03/14 10:54:22;;;;;;;;;;;9.90;99.90;;;;;;5072125;28;19913;-54
2022/03/14 10:57:07;;;;;;;;;;;10.00;99.90;;;;;;5072808;28;20314;-53
2022/03/14 10:59:40;;;;;;;;;;;10.10;99.90;;;;;;5072419;28;19912;-53
2022/03/14 11:02:07;;;;;;;;;;;10.10;99.90;;;;;;5072194;28;19919;-52
2022/03/14 11:04:46;;;;;;;;;;;10.10;99.90;;;;;;5072296;28;19908;-53
2022/03/14 11:07:11;;;;;;;;;;;10.10;99.90;;;;;;5072169;28;19916;-54
2022/03/14 11:09:38;;;;;;;;;;;10.20;99.90;;;;;;5072331;28;19913;-52
2022/03/14 11:12:08;;;;;;;;;;;10.10;99.90;;;;;;5072269;28;19916;-53
2022/03/14 11:14:33;;;;;;;;;;;10.10;99.90;;;;;;5071687;28;20009;-51
2022/03/14 11:17:09;;;;;;;;;;;10.20;99.90;;;;;;5071979;28;20402;-50
2022/03/14 11:19:35;;;;;;;;;;;10.20;99.90;;;;;;5071945;28;19916;-52
2022/03/14 11:22:00;;;;;;;;;;;10.30;99.90;;;;;;5072140;28;19912;-53
2022/03/14 11:24:26;;;;;;;;;;;10.30;99.90;;;;;;5072181;28;19908;-52
2022/03/14 11:26:51;;;;;;;;;;;10.30;99.90;;;;;;5085980;28;19989;-50
2022/03/14 11:29:17;;;;;;;;;;;10.40;99.90;;;;;;5094304;28;19912;-52
2022/03/14 11:31:47;;;;;;;;;;;10.40;99.90;;;;;;5105192;28;19916;-49
2022/03/14 11:34:13;;;;;;;;;;;10.40;99.90;;;;;;5092202;28;20018;-52
2022/03/14 11:36:39;;;;;;;;;;;10.40;99.90;;;;;;5091879;28;20286;-52
2022/03/14 11:39:04;;;;;;;;;;;10.40;99.90;;;;;;5092729;28;19908;-52
2022/03/14 11:41:30;;;;;;;;;;;10.40;99.90;;;;;;5092355;28;19916;-50
2022/03/14 11:43:55;;;;;;;;;;;10.30;99.90;;;;;;5099768;28;19908;-50
2022/03/14 11:46:21;;;;;;;;;;;10.30;99.90;;;;;;5112454;28;19908;-50
2022/03/14 11:48:46;;;;;;;;;;;10.30;99.90;;;;;;5113095;28;19914;-50
2022/03/14 11:51:12;;;;;;;;;;;10.30;99.90;;;;;;5100960;28;19927;-52
2022/03/14 11:53:47;;;;;;;;;;;10.30;99.90;;;;;;5090527;28;19912;-50
2022/03/14 11:56:12;;;;;;;;;;;10.30;99.90;;;;;;5112908;28;20535;-50
2022/03/14 11:58:40;;;;;;;;;;;10.30;99.90;;;;;;5094613;28;19963;-51
2022/03/14 12:01:12;;;;;;;;;;;10.40;99.90;;;;;;5091798;28;20057;-52
2022/03/14 12:03:41;;;;;;;;;;;10.40;99.90;;;;;;5092236;28;19969;-52
2022/03/14 12:06:08;;;;;;;;;;;10.40;99.90;;;;;;5086407;28;20003;-51
2022/03/14 12:08:36;;;;;;;;;;;10.40;99.90;;;;;;5095725;28;20362;-50
2022/03/14 12:11:20;;;;;;;;;;;10.50;99.90;;;;;;5095630;28;19912;-49
2022/03/14 12:13:46;;;;;;;;;;;10.50;99.90;;;;;;5095942;28;20361;-56
2022/03/14 12:16:34;;;;;;;;;;;10.60;99.90;;;;;;5095877;28;19916;-51
2022/03/14 12:19:00;;;;;;;;;;;10.60;99.90;;;;;;5095441;28;19916;-56
2022/03/14 12:21:44;;;;;;;;;;;10.60;99.90;;;;;;5095764;28;20255;-57
2022/03/14 12:24:17;;;;;;;;;;;10.60;99.90;;;;;;5095778;28;19970;-57
2022/03/14 12:26:43;;;;;;;;;;;10.70;99.90;;;;;;5094905;28;19908;-55
2022/03/14 12:29:28;;;;;;;;;;;10.70;99.90;;;;;;5095751;28;19915;-57
2022/03/14 12:32:12;;;;;;;;;;;10.80;99.90;;;;;;5095133;28;19942;-56
2022/03/14 12:34:38;;;;;;;;;;;10.80;99.90;;;;;;5094895;28;19974;-57
2022/03/14 12:37:22;;;;;;;;;;;10.90;99.90;;;;;;5081929;28;19916;-57
2022/03/14 12:39:48;;;;;;;;;;;10.90;99.90;;;;;;5094967;28;19908;-57
2022/03/14 12:42:20;;;;;;;;;;;11.00;99.90;;;;;;5095375;28;20382;-57
2022/03/14 12:45:06;;;;;;;;;;;11.10;99.90;;;;;;5095392;28;19916;-56
2022/03/14 12:47:31;;;;;;;;;;;11.10;99.90;;;;;;5094149;28;19915;-57
2022/03/14 12:49:57;;;;;;;;;;;11.20;99.90;;;;;;5095436;28;19908;-57
2022/03/14 12:52:22;;;;;;;;;;;11.30;99.90;;;;;;5094836;28;20283;-56
2022/03/14 12:54:48;;;;;;;;;;;11.40;99.90;;;;;;5093734;28;19909;-57
2022/03/14 12:57:17;;;;;;;;;;;11.50;99.90;;;;;;5074834;28;20011;-56
2022/03/14 12:59:45;;;;;;;;;;;11.60;99.90;;;;;;5074040;28;20045;-56
2022/03/14 13:02:20;;;;;;;;;;;11.60;99.90;;;;;;5073784;28;19923;-57
2022/03/14 13:04:53;;;;;;;;;;;11.70;99.90;;;;;;5075577;28;19913;-58
2022/03/14 13:07:19;;;;;;;;;;;11.80;99.90;;;;;;5097283;28;19911;-56
2022/03/14 13:09:50;;;;;;;;;;;11.80;99.90;;;;;;5115225;28;20354;-58
2022/03/14 13:12:16;;;;;;;;;;;11.90;99.90;;;;;;5101229;28;19916;-56
2022/03/14 13:14:43;;;;;;;;;;;11.90;99.90;;;;;;5075390;28;19912;-57
2022/03/14 13:17:08;;;;;;;;;;;11.90;99.90;;;;;;5074363;28;19917;-57
2022/03/14 13:19:35;;;;;;;;;;;11.90;99.90;;;;;;5074008;28;20017;-57
2022/03/14 13:22:14;;;;;;;;;;;12.10;99.90;;;;;;5073962;28;19908;-57
2022/03/14 13:24:43;;;;;;;;;;;12.20;99.90;;;;;;5073869;28;19952;-56
2022/03/14 13:27:09;;;;;;;;;;;12.40;99.90;;;;;;5074291;28;19947;-56
2022/03/14 13:29:34;;;;;;;;;;;12.50;99.90;;;;;;5073249;28;19908;-57
2022/03/14 13:32:00;;;;;;;;;;;12.70;99.90;;;;;;5074372;28;19923;-57
2022/03/14 13:34:28;;;;;;;;;;;12.80;99.90;;;;;;5073483;28;19921;-56
2022/03/14 13:37:02;;;;;;;;;;;12.80;99.90;;;;;;5073730;28;19908;-56
2022/03/14 13:39:28;;;;;;;;;;;12.80;99.90;;;;;;5073815;28;19918;-57
2022/03/14 13:41:55;;;;;;;;;;;12.90;99.90;;;;;;5073344;28;20429;-57
2022/03/14 13:44:21;;;;;;;;;;;13.00;99.90;;;;;;5073879;28;19909;-56
2022/03/14 13:46:48;;;;;;;;;;;13.00;99.90;;;;;;5073761;28;19908;-57
2022/03/14 13:49:14;;;;;;;;;;;12.90;99.90;;;;;;5073462;28;19912;-57
2022/03/14 13:51:42;;;;;;;;;;;12.90;99.90;;;;;;5073449;28;20335;-57
2022/03/14 13:54:07;;;;;;;;;;;12.90;99.90;;;;;;5073767;28;20007;-56
2022/03/14 13:56:34;;;;;;;;;;;12.90;99.90;;;;;;5072696;28;19984;-57
2022/03/14 13:58:59;;;;;;;;;;;12.80;99.90;;;;;;5073605;28;19916;-57
2022/03/14 14:01:39;;;;;;;;;;;12.70;99.90;;;;;;5073432;28;19909;-57
2022/03/14 14:04:37;;;;;;;;;;;12.70;99.90;;;;;;5073272;28;19912;-58
2022/03/14 14:07:11;;;;;;;;;;;12.70;99.90;;;;;;5050341;28;19915;-58
2022/03/14 14:09:41;;;;;;;;;;;12.70;99.90;;;;;;5073138;28;19919;-58
2022/03/14 14:12:20;;;;;;;;;;;12.70;99.90;;;;;;5074944;28;19920;-57
2022/03/14 14:14:51;;;;;;;;;;;12.70;99.90;;;;;;5073162;28;19963;-57
2022/03/14 14:17:26;;;;;;;;;;;12.60;99.90;;;;;;5072695;28;19908;-57